Time;durP1;ratioP1;P1;durP2;ratioP2;P2;SDS_P1;SDS_P2;PMS_P1;PMS_P2;Temp;Humidity;BMP_temperature;BMP_pressure;BME280_temperature;BME280_humidity;BME280_pressure;Samples;Min_cycle;Max_cycle;Signal;HPM_P1;HPM_P2
2021/12/12 00:00:44;;;;;;;75.88;48.67;;;;;;;25.07;35.00;102055.22;5061755;28;20032;-42
2021/12/12 00:03:22;;;;;;;70.22;47.47;;;;;;;25.05;35.07;102056.97;5063193;28;20851;-42
2021/12/12 00:05:56;;;;;;;73.28;47.15;;;;;;;25.08;35.13;102057.00;5063057;28;20094;-42
2021/12/12 00:08:25;;;;;;;69.43;46.78;;;;;;;25.03;35.27;102053.41;5062709;28;20029;-42
2021/12/12 00:10:57;;;;;;;72.65;47.22;;;;;;;25.02;34.97;102056.88;5062590;28;20036;-41
2021/12/12 00:13:29;;;;;;;69.75;45.63;;;;;;;24.84;35.00;102031.03;5062936;28;20089;-42
2021/12/12 00:15:58;;;;;;;73.78;46.50;;;;;;;25.05;34.74;102053.44;5063314;28;20045;-43
2021/12/12 00:18:27;;;;;;;69.45;44.72;;;;;;;25.07;35.14;102054.38;5062790;28;20920;-42
2021/12/12 00:20:56;;;;;;;75.55;48.45;;;;;;;25.02;35.15;102052.50;5063371;28;20033;-41
2021/12/12 00:23:25;;;;;;;69.00;46.28;;;;;;;25.00;34.85;102048.06;5063132;28;20294;-42
2021/12/12 00:25:58;;;;;;;70.30;48.60;;;;;;;24.97;34.96;102046.25;5063218;28;20032;-42
2021/12/12 00:28:28;;;;;;;77.57;47.75;;;;;;;24.91;35.04;102043.47;5061863;28;20031;-42
2021/12/12 00:31:00;;;;;;;70.18;45.67;;;;;;;24.92;35.40;102045.25;5063530;28;20381;-41
2021/12/12 00:33:29;;;;;;;72.55;46.03;;;;;;;24.95;35.08;102047.06;5062133;28;20033;-42
2021/12/12 00:35:57;;;;;;;74.60;48.25;;;;;;;24.96;35.30;102046.22;5063283;28;20051;-43
2021/12/12 00:38:33;;;;;;;67.55;45.38;;;;;;;24.95;34.83;102045.34;5063140;28;20035;-42
2021/12/12 00:41:06;;;;;;;80.15;48.80;;;;;;;24.94;35.28;102040.94;5063119;28;20040;-42
2021/12/12 00:43:39;;;;;;;69.03;47.47;;;;;;;24.99;34.72;102041.03;5062650;28;20999;-42
2021/12/12 00:46:09;;;;;;;76.10;47.42;;;;;;;24.95;34.82;102041.81;5062702;28;20125;-42
2021/12/12 00:48:39;;;;;;;73.05;47.78;;;;;;;24.89;35.30;102039.91;5066917;28;20040;-42
2021/12/12 00:51:10;;;;;;;71.13;46.78;;;;;;;24.94;35.09;102042.66;5067342;28;20466;-42
2021/12/12 00:53:40;;;;;;;78.38;48.15;;;;;;;24.91;34.87;102037.31;5067321;28;20093;-42
2021/12/12 00:56:10;;;;;;;73.63;48.47;;;;;;;24.95;35.08;102040.09;5066793;28;20037;-42
2021/12/12 00:58:39;;;;;;;67.15;45.63;;;;;;;25.01;34.94;102036.72;5067374;28;20032;-42
2021/12/12 01:01:13;;;;;;;74.05;49.03;;;;;;;25.00;34.92;102043.69;5066799;28;20032;-42
2021/12/12 01:03:48;;;;;;;71.13;45.80;;;;;;;25.01;34.55;102042.84;5066712;28;20068;-42
2021/12/12 01:06:17;;;;;;;74.50;48.63;;;;;;;24.93;35.09;102048.75;5066695;28;20036;-42
2021/12/12 01:08:47;;;;;;;71.70;46.70;;;;;;;24.99;35.03;102046.28;5066851;28;20535;-42
2021/12/12 01:11:20;;;;;;;73.05;46.97;;;;;;;24.96;34.67;102047.13;5066880;28;20065;-42
2021/12/12 01:13:49;;;;;;;76.03;48.22;;;;;;;25.09;34.42;102039.53;5066852;28;20033;-42
2021/12/12 01:16:23;;;;;;;72.20;47.28;;;;;;;25.01;34.74;102039.34;5066529;28;20064;-42
2021/12/12 01:19:00;;;;;;;70.68;47.97;;;;;;;25.08;34.50;102036.00;5066538;28;20050;-41
2021/12/12 01:21:34;;;;;;;71.70;46.55;;;;;;;24.98;34.98;102039.25;5066674;28;20462;-41
2021/12/12 01:24:07;;;;;;;71.63;47.85;;;;;;;24.95;34.62;102034.84;5065744;28;20043;-41
2021/12/12 01:26:37;;;;;;;67.03;45.63;;;;;;;24.95;34.91;102047.97;5066184;28;20032;-41
2021/12/12 01:29:06;;;;;;;66.88;45.67;;;;;;;24.99;34.95;102038.41;5064702;28;20397;-42
2021/12/12 01:31:39;;;;;;;71.35;46.70;;;;;;;25.07;34.37;102038.59;5066153;28;20507;-41
2021/12/12 01:34:12;;;;;;;75.65;49.05;;;;;;;25.05;34.43;102037.69;5066321;28;20020;-42
2021/12/12 01:36:51;;;;;;;71.60;49.00;;;;;;;25.05;34.53;102042.94;5066291;28;20039;-41
2021/12/12 01:39:22;;;;;;;71.95;48.63;;;;;;;25.02;34.66;102043.75;5066430;28;20097;-41
2021/12/12 01:41:56;;;;;;;70.63;47.35;;;;;;;24.97;34.62;102035.75;5066209;28;20050;-41
2021/12/12 01:44:32;;;;;;;72.82;48.88;;;;;;;24.94;35.00;102042.66;5066098;28;20083;-42
2021/12/12 01:47:00;;;;;;;70.85;47.15;;;;;;;24.95;35.00;102041.81;5064825;28;20029;-41
2021/12/12 01:49:30;;;;;;;70.45;48.10;;;;;;;24.92;34.98;102044.34;5065938;28;20043;-41
2021/12/12 01:51:58;;;;;;;74.93;49.67;;;;;;;24.95;34.63;102032.22;5066247;28;20382;-41
2021/12/12 01:54:42;;;;;;;78.35;49.80;;;;;;;24.95;35.03;102047.97;5065905;28;20462;-41
2021/12/12 01:57:14;;;;;;;69.53;47.38;;;;;;;24.94;35.00;102050.53;5065786;28;20068;-41
2021/12/12 01:59:44;;;;;;;72.65;48.22;;;;;;;24.98;34.77;102050.66;5064652;28;20067;-41
2021/12/12 02:02:18;;;;;;;73.45;48.47;;;;;;;24.97;34.54;102053.22;5065402;28;20032;-42
2021/12/12 02:04:52;;;;;;;76.80;49.20;;;;;;;24.95;34.67;102063.72;5065189;28;20056;-41
2021/12/12 02:07:24;;;;;;;72.90;50.88;;;;;;;24.97;34.70;102062.00;5065303;28;20044;-41
2021/12/12 02:09:54;;;;;;;76.80;50.50;;;;;;;25.00;34.51;102063.81;5064219;28;20107;-42
2021/12/12 02:12:25;;;;;;;75.53;50.10;;;;;;;24.95;34.75;102068.06;5064247;28;20611;-41
2021/12/12 02:14:54;;;;;;;74.63;48.80;;;;;;;24.98;34.49;102070.75;5065532;28;20106;-41
2021/12/12 02:17:32;;;;;;;77.72;50.08;;;;;;;24.81;34.86;102068.59;5064209;28;20436;-42
2021/12/12 02:20:07;;;;;;;76.72;50.58;;;;;;;24.94;34.66;102069.81;5065235;28;20027;-42
2021/12/12 02:36:40;;;;;;;81.20;51.78;;;;;;;25.05;34.70;102071.81;5060208;28;20044;-42
2021/12/12 02:39:15;;;;;;;79.90;50.38;;;;;;;24.98;34.35;102073.38;5063141;28;20040;-42
2021/12/12 02:41:47;;;;;;;77.90;49.08;;;;;;;24.94;34.53;102071.53;5064527;28;20036;-42
2021/12/12 02:44:22;;;;;;;70.53;48.75;;;;;;;24.95;34.35;102068.06;5063614;28;20387;-42
2021/12/12 02:46:53;;;;;;;74.28;47.80;;;;;;;24.94;34.50;102064.56;5064800;28;20037;-42
2021/12/12 02:49:36;;;;;;;75.72;48.85;;;;;;;25.00;34.48;102076.94;5064821;28;20154;-41
2021/12/12 02:52:07;;;;;;;72.70;47.88;;;;;;;24.90;34.40;102065.31;5065216;28;20032;-41
2021/12/12 02:54:36;;;;;;;72.90;46.92;;;;;;;24.93;34.47;102062.78;5064559;28;20028;-41
2021/12/12 02:57:05;;;;;;;77.80;47.53;;;;;;;24.85;34.85;102062.56;5065043;28;20024;-41
2021/12/12 02:59:37;;;;;;;72.55;47.78;;;;;;;24.88;34.70;102067.00;5064966;28;20035;-42
2021/12/12 03:02:12;;;;;;;73.93;48.08;;;;;;;24.84;34.58;102067.75;5064855;28;20489;-41
2021/12/12 03:04:41;;;;;;;75.50;48.55;;;;;;;24.85;34.97;102066.91;5062660;28;20505;-41
2021/12/12 03:07:11;;;;;;;68.75;47.72;;;;;;;24.88;34.84;102067.00;5064372;28;20037;-41
2021/12/12 03:09:44;;;;;;;70.75;47.65;;;;;;;24.82;34.62;102064.25;5063796;28;20033;-42
2021/12/12 03:12:18;;;;;;;76.20;47.33;;;;;;;24.90;34.85;102062.69;5063951;28;20998;-41
2021/12/12 03:14:48;;;;;;;68.70;47.05;;;;;;;24.82;34.54;102059.84;5064603;28;20482;-42
2021/12/12 03:17:20;;;;;;;72.63;48.70;;;;;;;24.93;34.60;102062.78;5064152;28;20110;-42
2021/12/12 03:19:54;;;;;;;72.32;46.42;;;;;;;24.82;34.87;102059.84;5064172;28;20032;-42
2021/12/12 03:22:22;;;;;;;74.47;47.08;;;;;;;24.94;34.44;102067.19;5064673;28;20111;-42
2021/12/12 03:24:51;;;;;;;71.35;47.45;;;;;;;24.86;34.71;102063.44;5063885;28;20032;-42
2021/12/12 03:27:20;;;;;;;75.95;47.55;;;;;;;24.83;34.88;102065.97;5063901;28;20058;-41
2021/12/12 03:29:49;;;;;;;72.55;46.95;;;;;;;24.83;34.83;102061.63;5064075;28;20036;-42
2021/12/12 03:32:22;;;;;;;70.00;45.58;;;;;;;24.78;35.02;102057.13;5063943;28;20485;-42
2021/12/12 03:34:58;;;;;;;68.32;45.05;;;;;;;24.83;34.75;102065.97;5064147;28;20041;-44
2021/12/12 03:37:30;;;;;;;70.18;46.55;;;;;;;24.86;34.42;102055.56;5063987;28;20098;-41
2021/12/12 03:40:05;;;;;;;76.22;50.20;;;;;;;24.82;34.63;102054.63;5064073;28;20115;-42
2021/12/12 03:42:33;;;;;;;72.50;46.05;;;;;;;24.78;34.99;102046.63;5064134;28;20025;-41
2021/12/12 03:45:02;;;;;;;73.82;47.97;;;;;;;24.86;34.83;102047.69;5064074;28;20051;-41
2021/12/12 03:47:37;;;;;;;75.05;48.47;;;;;;;24.82;34.54;102043.25;5063648;28;20020;-42
2021/12/12 03:50:11;;;;;;;74.72;48.00;;;;;;;24.88;34.62;102044.28;5063862;28;20033;-41
2021/12/12 03:52:39;;;;;;;63.83;45.40;;;;;;;24.83;34.40;102045.00;5063502;28;20390;-41
2021/12/12 03:55:09;;;;;;;72.57;48.75;;;;;;;24.86;34.69;102042.44;5063168;28;20032;-42
2021/12/12 03:57:36;;;;;;;66.97;46.38;;;;;;;24.86;34.83;102040.72;5063400;28;20111;-41
2021/12/12 04:00:06;;;;;;;74.40;48.05;;;;;;;24.89;34.70;102053.03;5063303;28;20123;-41
2021/12/12 04:02:34;;;;;;;71.30;47.22;;;;;;;24.78;34.88;102051.88;5062095;28;20033;-41
2021/12/12 04:05:03;;;;;;;70.10;47.78;;;;;;;24.84;34.77;102052.91;5063686;28;20045;-44
2021/12/12 04:07:32;;;;;;;72.70;46.85;;;;;;;24.88;34.49;102051.25;5063841;28;20111;-42
2021/12/12 04:10:01;;;;;;;73.25;47.60;;;;;;;25.00;34.27;102054.19;5063611;28;20040;-41
2021/12/12 04:12:29;;;;;;;73.40;47.60;;;;;;;24.87;34.71;102057.34;5063529;28;20056;-42
2021/12/12 04:14:58;;;;;;;68.20;47.42;;;;;;;24.97;34.10;102055.84;5063346;28;20029;-41
2021/12/12 04:17:30;;;;;;;70.70;45.60;;;;;;;24.85;34.63;102059.03;5063221;28;20032;-41
2021/12/12 04:20:01;;;;;;;68.53;47.63;;;;;;;24.83;34.58;102061.63;5062750;28;20081;-41
2021/12/12 04:22:33;;;;;;;72.03;46.28;;;;;;;24.89;34.46;102047.78;5061230;28;20115;-42
2021/12/12 04:25:00;;;;;;;71.28;45.88;;;;;;;24.82;34.57;102059.00;5063182;28;20496;-43
2021/12/12 04:27:29;;;;;;;69.47;46.75;;;;;;;24.77;34.60;102055.34;5063271;28;20029;-41
2021/12/12 04:30:00;;;;;;;68.35;46.67;;;;;;;24.78;34.47;102050.13;5063254;28;20032;-41
2021/12/12 04:32:30;;;;;;;72.50;46.72;;;;;;;24.85;34.48;102064.28;5063114;28;20028;-41
2021/12/12 04:35:03;;;;;;;67.97;46.22;;;;;;;24.90;34.43;102059.19;5063119;28;20268;-41
2021/12/12 04:37:32;;;;;;;71.10;45.00;;;;;;;24.85;34.43;102061.66;5063248;28;20050;-42
2021/12/12 04:40:01;;;;;;;76.93;47.85;;;;;;;24.86;34.75;102066.97;5063173;28;20230;-42
2021/12/12 04:42:36;;;;;;;69.05;47.17;;;;;;;24.84;34.37;102062.50;5063044;28;20029;-42
2021/12/12 04:45:18;;;;;;;69.75;46.22;;;;;;;24.88;34.37;102064.38;5062807;28;20029;-41
2021/12/12 04:51:04;;;;;;;67.15;45.08;;;;;;;24.88;34.39;102075.78;5052424;28;20043;-42
2021/12/12 04:53:48;;;;;;;69.22;45.70;;;;;;;24.87;34.28;102073.09;5062100;28;20028;-41
2021/12/12 04:56:25;;;;;;;65.20;44.15;;;;;;;24.82;34.54;102074.72;5062660;28;20124;-41
2021/12/12 04:59:17;;;;;;;72.82;47.45;;;;;;;24.81;34.83;102072.94;5062966;28;20082;-41
2021/12/12 05:01:53;;;;;;;73.43;47.20;;;;;;;24.86;34.58;102073.94;5063382;28;20028;-41
2021/12/12 05:04:28;;;;;;;69.45;43.88;;;;;;;24.81;34.61;102073.81;5060848;28;20149;-42
2021/12/12 05:06:59;;;;;;;63.10;42.63;;;;;;;24.85;34.59;102065.19;5062459;28;20029;-41
2021/12/12 05:09:31;;;;;;;68.50;43.90;;;;;;;24.84;34.63;102078.25;5062263;28;20035;-42
2021/12/12 05:12:16;;;;;;;61.75;40.42;;;;;;;24.83;34.35;102077.38;5062462;28;20121;-41
2021/12/12 05:14:50;;;;;;;59.25;37.97;;;;;;;24.86;34.13;102068.69;5062852;28;20039;-42
2021/12/12 05:17:43;;;;;;;54.45;35.85;;;;;;;24.96;34.33;102075.06;5061281;28;20071;-42
2021/12/12 05:20:19;;;;;;;52.20;36.60;;;;;;;24.95;33.97;102074.22;5034754;28;20059;-42
2021/12/12 05:22:50;;;;;;;49.92;33.53;;;;;;;24.90;34.17;102078.44;5061130;28;20394;-42
2021/12/12 05:25:22;;;;;;;47.75;32.78;;;;;;;24.88;34.52;102081.03;5061311;28;20095;-48
2021/12/12 05:27:53;;;;;;;46.72;31.50;;;;;;;24.89;34.12;102089.78;5062608;28;20044;-45
2021/12/12 05:30:27;;;;;;;45.63;29.52;;;;;;;24.92;34.36;102091.59;5062703;28;20097;-42
2021/12/12 05:32:56;;;;;;;46.65;30.98;;;;;;;24.91;34.17;102090.72;5063423;28;20024;-42
2021/12/12 05:35:28;;;;;;;46.58;29.20;;;;;;;24.78;34.18;102096.47;5066097;28;20406;-42
2021/12/12 05:37:57;;;;;;;36.42;25.85;;;;;;;24.78;34.46;102094.72;5064693;28;20379;-42
2021/12/12 05:40:29;;;;;;;40.83;26.35;;;;;;;24.77;34.68;102106.06;5064940;28;20135;-42
2021/12/12 05:43:00;;;;;;;41.22;26.35;;;;;;;24.76;34.57;102100.78;5066047;28;20036;-42
2021/12/12 05:45:29;;;;;;;37.72;24.38;;;;;;;24.76;34.52;102100.78;5066076;28;20051;-42
2021/12/12 05:47:57;;;;;;;37.95;26.35;;;;;;;24.77;34.56;102099.94;5066100;28;20028;-42
2021/12/12 05:50:26;;;;;;;35.05;24.05;;;;;;;24.68;34.64;102093.56;5065784;28;20123;-42
2021/12/12 05:52:54;;;;;;;32.28;22.25;;;;;;;24.81;34.18;102105.31;5065932;28;20063;-42
2021/12/12 05:55:26;;;;;;;29.92;21.42;;;;;;;24.79;34.14;102109.63;5064923;28;20039;-45
2021/12/12 05:57:56;;;;;;;30.15;19.98;;;;;;;24.79;34.34;102109.63;5066224;28;20029;-42
2021/12/12 06:00:29;;;;;;;26.08;18.55;;;;;;;24.79;34.50;102108.75;5066233;28;20025;-42
2021/12/12 06:02:58;;;;;;;27.20;18.40;;;;;;;24.77;34.04;102113.94;5065582;28;20056;-42
2021/12/12 06:05:28;;;;;;;26.00;18.45;;;;;;;24.66;34.38;102105.75;5064521;28;20029;-42
2021/12/12 06:07:57;;;;;;;28.00;16.98;;;;;;;24.74;34.47;102113.84;5065626;28;20089;-43
2021/12/12 06:10:25;;;;;;;25.33;16.98;;;;;;;24.67;34.30;102107.50;5064501;28;20052;-42
2021/12/12 06:12:55;;;;;;;26.70;16.45;;;;;;;24.77;34.24;102120.94;5064457;28;20025;-42
2021/12/12 06:15:27;;;;;;;23.65;16.05;;;;;;;24.76;34.52;102119.16;5065182;28;20033;-42
2021/12/12 06:17:56;;;;;;;21.15;15.10;;;;;;;24.80;34.42;102121.03;5064142;28;20389;-44
2021/12/12 06:20:24;;;;;;;22.00;14.32;;;;;;;24.80;34.42;102119.28;5065127;28;20116;-41
2021/12/12 06:22:55;;;;;;;21.23;14.05;;;;;;;24.76;34.04;102125.28;5065592;28;20032;-42
2021/12/12 06:25:24;;;;;;;21.50;13.73;;;;;;;24.75;34.09;102125.25;5065681;28;20032;-42
2021/12/12 06:27:53;;;;;;;18.77;13.18;;;;;;;24.80;34.41;102124.53;5065590;28;20025;-42
2021/12/12 06:30:23;;;;;;;17.65;12.00;;;;;;;24.85;34.26;102129.91;5064120;28;20703;-42
2021/12/12 06:32:52;;;;;;;18.88;12.93;;;;;;;24.73;34.09;102136.59;5065310;28;20043;-42
2021/12/12 06:35:21;;;;;;;17.38;11.30;;;;;;;24.80;34.38;102139.41;5064933;28;20039;-42
2021/12/12 06:37:50;;;;;;;21.05;12.57;;;;;;;24.80;34.31;102135.03;5065466;28;20116;-42
2021/12/12 06:40:22;;;;;;;17.30;12.02;;;;;;;24.70;34.55;102147.00;5063711;28;20466;-41
2021/12/12 06:42:51;;;;;;;15.68;11.18;;;;;;;24.72;34.22;102152.31;5064779;28;20036;-41
2021/12/12 06:45:20;;;;;;;18.50;10.55;;;;;;;24.73;33.98;102133.97;5064541;28;20036;-42
2021/12/12 06:47:49;;;;;;;17.42;10.90;;;;;;;24.78;34.31;102156.84;5064506;28;20024;-42
2021/12/12 06:50:18;;;;;;;16.35;10.00;;;;;;;24.67;34.35;102133.75;5035209;28;20120;-42
2021/12/12 06:52:48;;;;;;;15.48;9.98;;;;;;;24.73;34.01;102152.34;5046965;28;20470;-42
2021/12/12 06:55:15;;;;;;;13.73;8.70;;;;;;;24.63;34.60;102149.38;5064880;28;20504;-45
2021/12/12 06:57:44;;;;;;;12.60;8.93;;;;;;;24.62;34.68;102144.97;5064579;28;20037;-42
2021/12/12 07:00:15;;;;;;;17.35;8.80;;;;;;;24.60;34.63;102147.56;5064894;28;20032;-42
2021/12/12 07:02:44;;;;;;;13.10;8.25;;;;;;;24.67;34.53;102148.63;5064807;28;20031;-42
2021/12/12 07:05:16;;;;;;;12.90;8.25;;;;;;;24.80;34.14;102147.28;5064773;28;20044;-42
2021/12/12 07:07:46;;;;;;;14.63;8.02;;;;;;;24.78;34.27;102148.97;5064631;28;20490;-44
2021/12/12 07:10:16;;;;;;;12.40;7.25;;;;;;;24.73;34.48;102143.59;5063207;28;20028;-46
2021/12/12 07:12:46;;;;;;;11.23;7.03;;;;;;;24.76;34.42;102142.78;5064570;28;20481;-47
2021/12/12 07:15:16;;;;;;;10.32;6.25;;;;;;;24.66;34.34;102145.09;5064716;28;20068;-45
2021/12/12 07:17:45;;;;;;;11.45;6.18;;;;;;;24.71;34.39;102146.16;5064544;28;20424;-43
2021/12/12 07:20:14;;;;;;;10.73;6.53;;;;;;;24.69;34.29;102145.19;5062835;28;20028;-44
2021/12/12 07:22:42;;;;;;;8.90;5.63;;;;;;;24.76;34.11;102148.03;5064461;28;20032;-44
2021/12/12 07:25:10;;;;;;;7.95;5.15;;;;;;;24.71;34.57;102156.66;5063121;28;20039;-45
2021/12/12 07:27:39;;;;;;;10.43;6.43;;;;;;;24.78;34.05;102143.72;5064163;28;20112;-43
2021/12/12 07:30:08;;;;;;;13.52;7.20;;;;;;;24.81;33.99;102151.69;5064307;28;20553;-45
2021/12/12 07:32:38;;;;;;;9.15;6.10;;;;;;;24.80;34.18;102144.66;5064147;28;20142;-45
2021/12/12 07:35:11;;;;;;;10.52;5.65;;;;;;;24.76;34.54;102148.03;5064217;28;20473;-46
2021/12/12 07:37:39;;;;;;;8.52;5.25;;;;;;;24.75;34.22;102141.88;5063669;28;20032;-45
2021/12/12 07:40:09;;;;;;;10.77;5.80;;;;;;;24.81;34.02;102151.69;5063726;28;20032;-44
2021/12/12 07:42:38;;;;;;;9.32;5.38;;;;;;;24.84;34.03;102146.50;5064222;28;20032;-43
2021/12/12 07:45:07;;;;;;;9.45;5.03;;;;;;;24.72;34.60;102153.19;5062254;28;20037;-43
2021/12/12 07:47:36;;;;;;;10.02;5.10;;;;;;;24.75;34.50;102152.38;5063908;28;20044;-43
2021/12/12 07:50:07;;;;;;;8.15;4.90;;;;;;;24.75;34.40;102167.25;5062982;28;20477;-45
2021/12/12 07:52:36;;;;;;;7.95;4.63;;;;;;;24.77;34.20;102162.94;5062684;28;20500;-46
2021/12/12 07:55:05;;;;;;;6.45;4.15;;;;;;;24.73;34.24;102162.84;5063642;28;20847;-43
2021/12/12 07:57:34;;;;;;;6.70;4.20;;;;;;;24.68;34.72;102172.28;5062833;28;20036;-42
2021/12/12 08:00:06;;;;;;;7.00;3.72;;;;;;;24.70;34.38;102175.88;5063273;28;20020;-42
2021/12/12 08:02:35;;;;;;;10.10;3.78;;;;;;;24.77;34.60;102170.81;5062115;28;20253;-42
2021/12/12 08:05:04;;;;;;;10.48;3.65;;;;;;;24.78;34.29;102169.97;5062239;28;20040;-42
2021/12/12 08:07:34;;;;;;;5.22;2.85;;;;;;;24.72;34.27;102171.56;5063338;28;20029;-41
2021/12/12 08:10:02;;;;;;;5.75;3.17;;;;;;;24.84;34.30;102171.03;5063326;28;20032;-42
2021/12/12 08:12:31;;;;;;;5.15;2.72;;;;;;;24.86;34.06;102168.44;5063504;28;20508;-42
2021/12/12 08:14:59;;;;;;;6.13;2.95;;;;;;;24.84;34.50;102175.38;5062272;28;20064;-43
2021/12/12 08:17:27;;;;;;;6.03;2.88;;;;;;;24.77;34.25;102176.06;5062081;28;20078;-42
2021/12/12 08:19:59;;;;;;;6.90;3.17;;;;;;;24.77;34.64;102181.31;5063350;28;20032;-42
2021/12/12 08:22:28;;;;;;;8.85;3.15;;;;;;;24.77;34.60;102173.44;5063515;28;20486;-42
2021/12/12 08:24:59;;;;;;;4.93;2.20;;;;;;;24.80;34.30;102176.16;5063059;28;20047;-42
2021/12/12 08:27:28;;;;;;;4.90;2.38;;;;;;;24.78;34.29;102183.09;5063646;28;20422;-41
2021/12/12 08:29:58;;;;;;;4.60;2.35;;;;;;;24.80;34.31;102181.41;5063734;28;20111;-42
2021/12/12 08:32:26;;;;;;;3.20;1.92;;;;;;;24.77;34.78;102187.44;5063066;28;20032;-44
2021/12/12 08:34:54;;;;;;;3.88;2.10;;;;;;;24.80;34.26;102197.16;5063350;28;20029;-42
2021/12/12 08:37:22;;;;;;;4.68;2.08;;;;;;;24.86;34.11;102202.56;5063241;28;20043;-45
2021/12/12 08:39:51;;;;;;;3.55;1.88;;;;;;;24.85;34.15;102199.06;5061785;28;20028;-44
2021/12/12 08:42:19;;;;;;;4.32;2.08;;;;;;;24.78;34.21;102199.69;5063133;28;20036;-42
2021/12/12 08:44:48;;;;;;;7.38;2.33;;;;;;;24.76;34.78;102196.16;5061395;28;20043;-44
2021/12/12 08:47:16;;;;;;;4.60;2.72;;;;;;;24.81;34.25;102199.81;5063189;28;20028;-42
2021/12/12 08:49:44;;;;;;;4.47;2.38;;;;;;;24.78;34.71;102198.84;5063032;28;20032;-43
2021/12/12 08:52:13;;;;;;;5.07;2.22;;;;;;;24.79;34.81;102203.25;5063242;28;20060;-43
2021/12/12 08:54:44;;;;;;;8.27;2.50;;;;;;;24.81;34.55;102206.81;5061429;28;20109;-48
2021/12/12 09:00:08;;;;;;;5.45;1.90;;;;;;;24.77;34.90;102202.31;5062875;28;20056;-44
2021/12/12 09:02:36;;;;;;;5.68;2.33;;;;;;;24.92;33.96;102212.34;5062635;28;20465;-43
2021/12/12 09:05:10;;;;;;;4.07;1.85;;;;;;;24.83;34.60;102218.19;5045006;28;20045;-42
2021/12/12 09:07:43;;;;;;;5.13;1.92;;;;;;;24.80;34.41;102212.88;5063363;28;20055;-43
2021/12/12 09:10:30;;;;;;;8.32;2.30;;;;;;;24.80;34.73;102212.88;5066803;28;20058;-44
2021/12/12 09:16:26;;;;;;;7.70;4.25;;;;;;;24.82;34.33;102222.56;5066009;28;20508;-44
2021/12/12 09:19:02;;;;;;;12.02;7.88;;;;;;;24.82;34.60;102226.94;5066786;28;20041;-43
2021/12/12 09:21:36;;;;;;;24.13;15.50;;;;;;;24.79;34.91;102224.22;5066721;28;20127;-43
2021/12/12 09:24:11;;;;;;;31.98;19.80;;;;;;;24.75;34.95;102219.72;5066246;28;20146;-44
2021/12/12 09:26:39;;;;;;;;;;;;;;;24.82;34.67;102221.69;5066817;28;20150;-46
2021/12/12 09:29:22;;;;;;;58.35;37.17;;;;;;;24.88;34.90;102222.78;5066154;28;19923;-42
2021/12/12 09:32:12;;;;;;;69.35;43.28;;;;;;;24.83;34.71;102231.31;5066338;28;20390;-43
2021/12/12 09:35:08;;;;;;;73.63;48.67;;;;;;;24.85;35.06;102234.88;5066344;28;20032;-42
2021/12/12 09:37:39;;;;;;;95.03;58.45;;;;;;;24.80;35.22;102229.50;5062676;28;20043;-43
2021/12/12 09:40:14;;;;;;;97.43;62.40;;;;;;;24.90;34.98;102235.06;5066672;28;20028;-44
2021/12/12 09:43:06;;;;;;;118.60;72.05;;;;;;;24.86;35.47;102228.81;5065697;28;20025;-42
2021/12/12 09:45:54;;;;;;;123.10;80.00;;;;;;;24.87;35.28;102225.34;5060438;28;20051;-42
2021/12/12 09:52:14;;;;;;;144.43;89.18;;;;;;;24.83;35.84;102228.69;5062118;28;20118;-43
2021/12/12 09:55:02;;;;;;;143.50;95.30;;;;;;;24.85;35.55;102227.94;5052834;28;20044;-43
2021/12/12 09:57:41;;;;;;;159.48;101.25;;;;;;;24.87;35.56;102234.13;5049303;28;20032;-48
2021/12/12 10:00:12;;;;;;;154.73;104.32;;;;;;;24.85;36.11;102235.78;5065805;28;20037;-46
2021/12/12 10:06:31;;;;;;;168.23;108.07;;;;;;;24.84;35.82;102235.72;5061308;28;20090;-49
2021/12/12 10:09:08;;;;;;;178.52;114.45;;;;;;;24.83;36.21;102240.09;5065419;28;20082;-45
2021/12/12 10:11:57;;;;;;;192.57;125.55;;;;;;;24.87;36.17;102242.00;5065523;28;20115;-50
2021/12/12 10:14:31;;;;;;;190.50;128.32;;;;;;;24.86;36.38;102245.44;5048965;28;20867;-45
2021/12/12 10:17:21;;;;;;;194.77;130.43;;;;;;;24.88;36.46;102246.41;5063881;28;20033;-47
2021/12/12 10:19:56;;;;;;;191.50;127.05;;;;;;;24.95;36.22;102243.94;5054520;28;20044;-45
2021/12/12 10:22:30;;;;;;;209.35;135.65;;;;;;;24.91;36.29;102252.56;5065480;28;20024;-46
2021/12/12 10:25:15;;;;;;;205.68;135.18;;;;;;;24.92;36.40;102244.75;5064296;28;20648;-44
2021/12/12 10:27:51;;;;;;;;;;;;;;;25.01;36.13;102244.13;5064360;28;20115;-43
2021/12/12 10:30:28;;;;;;;209.32;135.73;;;;;;;25.01;36.08;102239.75;5063932;28;19921;-42
2021/12/12 10:32:59;;;;;;;213.35;141.32;;;;;;;24.91;36.40;102235.09;5063782;28;20768;-44
2021/12/12 10:35:52;;;;;;;216.77;141.15;;;;;;;24.91;36.31;102242.97;5065180;28;20036;-45
2021/12/12 10:38:22;;;;;;;212.30;138.55;;;;;;;24.97;36.48;102237.91;5056349;28;20520;-42
2021/12/12 10:40:58;;;;;;;213.40;140.95;;;;;;;24.92;36.76;102238.59;5063300;28;20094;-43
2021/12/12 10:43:40;;;;;;;207.85;140.35;;;;;;;24.97;36.60;102237.91;5063251;28;20033;-42
2021/12/12 10:46:29;;;;;;;215.93;141.13;;;;;;;24.99;36.58;102236.19;5064486;28;20025;-42
2021/12/12 10:49:18;;;;;;;221.73;143.38;;;;;;;25.02;36.67;102241.53;5058252;28;20539;-40
2021/12/12 10:51:57;;;;;;;211.75;144.00;;;;;;;24.94;36.39;102242.16;5065310;28;20038;-44
2021/12/12 10:54:43;;;;;;;214.77;143.40;;;;;;;24.98;36.68;102234.44;5064872;28;20028;-41
2021/12/12 10:57:15;;;;;;;;;;;;;;;25.01;36.33;102237.13;5065114;28;20051;-42
2021/12/12 11:00:05;;;;;;;231.23;146.48;;;;;;;25.00;36.58;102231.84;5064948;28;19986;-42
2021/12/12 11:02:42;;;;;;;234.02;150.82;;;;;;;24.94;36.40;102227.31;5064596;28;21185;-42
2021/12/12 11:05:16;;;;;;;230.40;153.02;;;;;;;24.98;36.73;102226.56;5063036;28;20063;-41
2021/12/12 11:07:51;;;;;;;227.98;151.75;;;;;;;25.00;36.38;102216.97;5064500;28;20448;-45
2021/12/12 11:10:28;;;;;;;233.68;153.98;;;;;;;24.93;36.75;102215.03;5064226;28;20071;-41
2021/12/12 11:12:58;;;;;;;245.73;158.40;;;;;;;24.97;36.93;102209.03;5064600;28;20025;-41
2021/12/12 11:15:37;;;;;;;229.68;154.57;;;;;;;25.00;36.71;102203.81;5063870;28;20482;-42
2021/12/12 11:18:27;;;;;;;227.43;151.95;;;;;;;24.92;36.56;102196.59;5064364;28;20494;-41
2021/12/12 11:21:07;;;;;;;221.85;147.23;;;;;;;24.89;36.62;102197.41;5058421;28;20048;-41
2021/12/12 11:23:43;;;;;;;205.98;142.38;;;;;;;24.93;36.82;102206.25;5064245;28;20037;-41
2021/12/12 11:26:16;;;;;;;204.80;137.93;;;;;;;24.93;36.63;102193.13;5062589;28;20020;-42
2021/12/12 11:28:48;;;;;;;210.48;143.88;;;;;;;25.01;36.65;102200.38;5062223;28;20506;-39
2021/12/12 11:31:23;;;;;;;201.77;134.93;;;;;;;24.87;36.75;102192.13;5062696;28;20492;-39
2021/12/12 11:33:53;;;;;;;205.80;139.20;;;;;;;24.90;36.67;102193.94;5064123;28;20416;-40
2021/12/12 11:36:28;;;;;;;209.40;135.43;;;;;;;24.84;36.70;102192.03;5063642;28;20036;-44
2021/12/12 11:39:22;;;;;;;195.00;129.75;;;;;;;24.88;36.68;102187.75;5064021;28;20440;-41
2021/12/12 11:42:03;;;;;;;198.73;131.65;;;;;;;24.93;36.47;102188.78;5058506;28;20089;-41
2021/12/12 11:44:44;;;;;;;196.32;133.02;;;;;;;24.92;36.83;102187.00;5063677;28;20031;-41
2021/12/12 11:47:32;;;;;;;183.52;127.00;;;;;;;24.93;36.42;102177.38;5064119;28;20039;-40
2021/12/12 11:50:08;;;;;;;197.05;128.43;;;;;;;24.91;36.64;102176.44;5063775;28;20107;-41
2021/12/12 11:52:57;;;;;;;187.45;125.28;;;;;;;24.88;36.66;102172.91;5063904;28;20032;-40
2021/12/12 11:55:47;;;;;;;180.48;122.72;;;;;;;24.92;36.47;102172.97;5063506;28;20383;-41
2021/12/12 11:58:35;;;;;;;182.40;124.65;;;;;;;24.88;36.48;102174.63;5057271;28;20033;-41
2021/12/12 12:01:19;;;;;;;188.18;122.93;;;;;;;24.96;36.33;102167.88;5062414;28;20039;-41
2021/12/12 12:04:11;;;;;;;179.45;119.07;;;;;;;24.89;36.68;102171.16;5063807;28;20103;-41
2021/12/12 12:07:00;;;;;;;176.50;120.15;;;;;;;24.89;36.68;102168.53;5058825;28;20053;-42